createdAt,value
2019-01-13T00:00:12.238Z,44.14
2019-01-13T00:01:10.478Z,44.14
2019-01-13T00:02:10.466Z,44.18
2019-01-13T00:03:10.251Z,44.15
2019-01-13T00:04:10.409Z,44.13
2019-01-13T00:05:11.503Z,44.15
2019-01-13T00:06:10.340Z,44.15
2019-01-13T00:07:12.260Z,44.15
2019-01-13T00:08:11.160Z,44.19
2019-01-13T00:09:10.349Z,44.16
2019-01-13T00:10:10.835Z,44.19
2019-01-13T00:11:10.413Z,44.15
2019-01-13T00:12:12.238Z,44.18
2019-01-13T00:13:11.093Z,44.18
2019-01-13T00:14:11.278Z,44.16
2019-01-13T00:15:10.404Z,44.18
2019-01-13T00:16:10.796Z,44.19
2019-01-13T00:17:10.342Z,44.18
2019-01-13T00:18:10.826Z,44.18
2019-01-13T00:19:10.609Z,44.17
2019-01-13T00:20:10.621Z,44.2
2019-01-13T00:21:10.529Z,44.2
2019-01-13T00:22:10.586Z,44.17
2019-01-13T00:23:10.353Z,44.17
2019-01-13T00:24:10.357Z,44.16
2019-01-13T00:25:10.211Z,44.2
2019-01-13T00:26:10.774Z,44.19
2019-01-13T00:27:10.705Z,44.18
2019-01-13T00:28:10.804Z,44.22
2019-01-13T00:29:10.610Z,44.2
2019-01-13T00:30:10.814Z,44.2
2019-01-13T00:31:10.651Z,44.25
2019-01-13T00:32:10.805Z,44.16
2019-01-13T00:33:10.447Z,44.19
2019-01-13T00:34:10.659Z,44.2
2019-01-13T00:35:10.605Z,44.21
2019-01-13T00:36:11.564Z,44.21
2019-01-13T00:37:10.368Z,44.18
2019-01-13T00:38:10.678Z,44.2
2019-01-13T00:39:10.468Z,44.18
2019-01-13T00:40:10.731Z,44.24
2019-01-13T00:41:10.857Z,44.25
2019-01-13T00:42:10.193Z,44.29
2019-01-13T00:43:10.788Z,44.23
2019-01-13T00:44:11.197Z,44.23
2019-01-13T00:45:10.170Z,44.22
2019-01-13T00:46:10.643Z,44.21
2019-01-13T00:47:12.318Z,44.23
2019-01-13T00:48:10.347Z,44.23
2019-01-13T00:49:10.640Z,44.23
2019-01-13T00:50:10.763Z,44.21
2019-01-13T00:51:10.219Z,44.23
2019-01-13T00:52:10.383Z,44.21
2019-01-13T00:53:10.195Z,44.21
2019-01-13T00:54:10.265Z,44.22
2019-01-13T00:55:10.448Z,44.25
2019-01-13T00:56:10.573Z,44.21
2019-01-13T00:57:12.110Z,44.21
2019-01-13T00:58:10.986Z,44.19
2019-01-13T00:59:12.183Z,44.25
2019-01-13T01:00:10.393Z,44.24
2019-01-13T01:01:11.035Z,44.21
2019-01-13T01:02:10.726Z,44.26
2019-01-13T01:03:10.817Z,44.2
2019-01-13T01:04:10.312Z,44.24
2019-01-13T01:05:10.432Z,44.23
2019-01-13T01:06:10.522Z,44.23
2019-01-13T01:07:10.755Z,44.24
2019-01-13T01:08:10.721Z,44.26
2019-01-13T01:09:10.502Z,44.28
2019-01-13T01:10:10.361Z,44.28
2019-01-13T01:11:10.796Z,44.29
2019-01-13T01:12:10.522Z,44.3
2019-01-13T01:13:10.391Z,44.26
2019-01-13T01:14:10.751Z,44.26
2019-01-13T01:15:10.596Z,44.29
2019-01-13T01:16:10.551Z,44.27
2019-01-13T01:17:10.394Z,44.25
2019-01-13T01:18:10.316Z,44.3
2019-01-13T01:19:10.671Z,44.28
2019-01-13T01:20:10.977Z,44.29
2019-01-13T01:21:10.539Z,44.27
2019-01-13T01:22:10.266Z,44.32
2019-01-13T01:23:10.458Z,44.29
2019-01-13T01:24:12.186Z,44.27
2019-01-13T01:25:10.411Z,44.3
2019-01-13T01:26:10.320Z,44.26
2019-01-13T01:27:10.584Z,44.32
2019-01-13T01:28:11.003Z,44.31
2019-01-13T01:29:10.189Z,44.28
2019-01-13T01:30:10.387Z,44.31
2019-01-13T01:31:10.818Z,44.28
2019-01-13T01:32:10.311Z,44.32
2019-01-13T01:33:10.405Z,44.3
2019-01-13T01:34:10.757Z,44.33
2019-01-13T01:35:10.554Z,44.32
2019-01-13T01:36:10.362Z,44.33
2019-01-13T01:37:10.185Z,44.33
2019-01-13T01:38:10.256Z,44.29
2019-01-13T01:39:11.088Z,44.36
2019-01-13T01:40:10.277Z,44.35
2019-01-13T01:41:10.253Z,44.32
2019-01-13T01:42:10.794Z,44.37
2019-01-13T01:43:10.278Z,44.38
2019-01-13T01:44:10.278Z,44.35
2019-01-13T01:45:10.428Z,44.36
2019-01-13T01:46:10.339Z,44.35
2019-01-13T01:47:10.423Z,44.38
2019-01-13T01:48:11.059Z,44.35
2019-01-13T01:49:10.217Z,44.34
2019-01-13T01:50:10.466Z,44.39
2019-01-13T01:51:10.265Z,44.37
2019-01-13T01:52:10.322Z,44.37
2019-01-13T01:53:10.565Z,44.35
2019-01-13T01:54:10.343Z,44.39
2019-01-13T01:55:10.391Z,44.38
2019-01-13T01:56:11.166Z,44.4
2019-01-13T01:57:10.362Z,44.36
2019-01-13T01:58:10.722Z,44.38
2019-01-13T01:59:10.255Z,44.38
2019-01-13T02:00:10.259Z,44.35
2019-01-13T02:01:10.553Z,44.38
2019-01-13T02:02:10.496Z,44.39
2019-01-13T02:03:10.380Z,44.39
2019-01-13T02:04:10.309Z,44.43
2019-01-13T02:05:10.944Z,44.41
2019-01-13T02:06:10.708Z,44.38
2019-01-13T02:07:10.524Z,44.43
2019-01-13T02:08:10.730Z,44.43
2019-01-13T02:09:10.657Z,44.41
2019-01-13T02:10:10.319Z,44.42
2019-01-13T02:11:10.990Z,44.41
2019-01-13T02:12:10.383Z,44.4
2019-01-13T02:13:11.177Z,44.44
2019-01-13T02:14:10.742Z,44.44
2019-01-13T02:15:10.187Z,44.38
2019-01-13T02:16:10.179Z,44.42
2019-01-13T02:17:10.429Z,44.43
2019-01-13T02:18:10.175Z,44.42
2019-01-13T02:19:10.329Z,44.47
2019-01-13T02:20:10.561Z,44.39
2019-01-13T02:21:10.413Z,44.41
2019-01-13T02:22:10.264Z,44.38
2019-01-13T02:23:10.654Z,44.43
2019-01-13T02:24:10.602Z,44.44
2019-01-13T02:25:10.488Z,44.43
2019-01-13T02:26:10.359Z,44.45
2019-01-13T02:27:10.364Z,44.46
2019-01-13T02:28:10.515Z,44.45
2019-01-13T02:29:10.628Z,44.41
2019-01-13T02:30:10.694Z,44.43
2019-01-13T02:31:10.790Z,44.41
2019-01-13T02:32:10.486Z,44.41
2019-01-13T02:33:10.365Z,44.42
2019-01-13T02:34:10.785Z,44.4
2019-01-13T02:35:10.154Z,44.41
2019-01-13T02:36:10.605Z,44.44
2019-01-13T02:37:10.179Z,44.38
2019-01-13T02:38:10.480Z,44.44
2019-01-13T02:39:10.544Z,44.42
2019-01-13T02:40:10.864Z,44.4
2019-01-13T02:41:10.907Z,44.41
2019-01-13T02:42:10.760Z,44.41
2019-01-13T02:43:10.483Z,44.44
2019-01-13T02:44:10.286Z,44.47
2019-01-13T02:45:10.370Z,44.43
2019-01-13T02:46:10.589Z,44.45
2019-01-13T02:47:11.469Z,44.44
2019-01-13T02:48:10.651Z,44.46
2019-01-13T02:49:10.184Z,44.47
2019-01-13T02:50:10.453Z,44.46
2019-01-13T02:51:10.641Z,44.44
2019-01-13T02:52:10.589Z,44.43
2019-01-13T02:53:10.607Z,44.46
2019-01-13T02:54:10.514Z,44.43
2019-01-13T02:55:10.438Z,44.45
2019-01-13T02:56:10.243Z,44.44
2019-01-13T02:57:10.332Z,44.44
2019-01-13T02:58:10.932Z,44.45
2019-01-13T02:59:10.749Z,44.48
2019-01-13T03:00:10.203Z,44.49
2019-01-13T03:01:10.264Z,44.43
2019-01-13T03:02:10.410Z,44.5
2019-01-13T03:03:10.482Z,44.51
2019-01-13T03:04:12.235Z,44.47
2019-01-13T03:05:10.499Z,44.47
2019-01-13T03:06:10.605Z,44.45
2019-01-13T03:07:10.506Z,44.51
2019-01-13T03:08:11.235Z,44.47
2019-01-13T03:09:10.357Z,44.45
2019-01-13T03:10:10.399Z,44.45
2019-01-13T03:11:10.120Z,44.46
2019-01-13T03:12:10.295Z,44.51
2019-01-13T03:13:10.455Z,44.46
2019-01-13T03:14:10.447Z,44.45
2019-01-13T03:15:10.260Z,44.43
2019-01-13T03:16:10.717Z,44.49
2019-01-13T03:17:10.455Z,44.48
2019-01-13T03:18:10.266Z,44.47
2019-01-13T03:19:10.434Z,44.51
2019-01-13T03:20:10.576Z,44.48
2019-01-13T03:21:10.431Z,44.47
2019-01-13T03:22:10.407Z,44.5
2019-01-13T03:23:10.368Z,44.51
2019-01-13T03:24:10.484Z,44.51
2019-01-13T03:25:12.563Z,44.52
2019-01-13T03:26:10.431Z,44.52
2019-01-13T03:27:10.372Z,44.51
2019-01-13T03:28:10.263Z,44.52
2019-01-13T03:29:10.490Z,44.48
2019-01-13T03:30:10.676Z,44.48
2019-01-13T03:31:13.521Z,44.53
2019-01-13T03:32:10.545Z,44.54
2019-01-13T03:33:10.799Z,44.49
2019-01-13T03:34:10.252Z,44.49
2019-01-13T03:35:10.605Z,44.52
2019-01-13T03:36:10.586Z,44.5
2019-01-13T03:37:10.113Z,44.55
2019-01-13T03:38:10.838Z,44.52
2019-01-13T03:39:12.249Z,44.51
2019-01-13T03:40:11.146Z,44.51
2019-01-13T03:41:10.371Z,44.51
2019-01-13T03:42:10.327Z,44.51
2019-01-13T03:43:11.553Z,44.52
2019-01-13T03:44:10.648Z,44.55
2019-01-13T03:45:10.460Z,44.59
2019-01-13T03:46:10.251Z,44.53
2019-01-13T03:47:10.428Z,44.53
2019-01-13T03:48:10.455Z,44.54
2019-01-13T03:49:10.329Z,44.57
2019-01-13T03:50:10.792Z,44.51
2019-01-13T03:51:10.936Z,44.53
2019-01-13T03:52:10.351Z,44.56
2019-01-13T03:53:10.241Z,44.55
2019-01-13T03:54:10.249Z,44.55
2019-01-13T03:55:10.327Z,44.51
2019-01-13T03:56:11.050Z,44.57
2019-01-13T03:57:10.440Z,44.55
2019-01-13T03:58:11.485Z,44.56
2019-01-13T03:59:10.261Z,44.53
2019-01-13T04:00:10.287Z,44.58
2019-01-13T04:01:19.037Z,44.54
2019-01-13T04:02:10.588Z,44.53
2019-01-13T04:03:10.154Z,44.56
2019-01-13T04:04:11.300Z,44.56
2019-01-13T04:05:10.435Z,44.57
2019-01-13T04:06:10.184Z,44.57
2019-01-13T04:07:10.296Z,44.57
2019-01-13T04:08:11.021Z,44.55
2019-01-13T04:09:10.561Z,44.59
2019-01-13T04:10:10.523Z,44.57
2019-01-13T04:11:10.470Z,44.59
2019-01-13T04:12:10.554Z,44.61
2019-01-13T04:13:10.338Z,44.59
2019-01-13T04:14:10.610Z,44.6
2019-01-13T04:15:10.673Z,44.6
2019-01-13T04:16:10.618Z,44.56
2019-01-13T04:17:10.326Z,44.61
2019-01-13T04:18:10.745Z,44.57
2019-01-13T04:19:10.286Z,44.61
2019-01-13T04:20:10.225Z,44.65
2019-01-13T04:21:10.597Z,44.63
2019-01-13T04:22:10.449Z,44.6
2019-01-13T04:23:10.162Z,44.61
2019-01-13T04:24:12.135Z,44.58
2019-01-13T04:25:10.145Z,44.57
2019-01-13T04:26:10.367Z,44.63
2019-01-13T04:27:10.300Z,44.63
2019-01-13T04:28:10.438Z,44.57
2019-01-13T04:29:10.467Z,44.61
2019-01-13T04:30:10.723Z,44.61
2019-01-13T04:31:10.935Z,44.57
2019-01-13T04:32:10.337Z,44.61
2019-01-13T04:33:10.435Z,44.61
2019-01-13T04:34:10.409Z,44.59
2019-01-13T04:35:12.210Z,44.57
2019-01-13T04:36:10.233Z,44.64
2019-01-13T04:37:11.345Z,44.58
2019-01-13T04:38:10.553Z,44.59
2019-01-13T04:39:10.292Z,44.58
2019-01-13T04:40:10.385Z,44.59
2019-01-13T04:41:10.514Z,44.57
2019-01-13T04:42:10.464Z,44.57
2019-01-13T04:43:10.361Z,44.55
2019-01-13T04:44:10.417Z,44.61
2019-01-13T04:45:10.478Z,44.57
2019-01-13T04:46:10.262Z,44.55
2019-01-13T04:47:10.220Z,44.58
2019-01-13T04:48:10.516Z,44.6
2019-01-13T04:49:10.628Z,44.56
2019-01-13T04:50:10.530Z,44.61
2019-01-13T04:51:10.187Z,44.6
2019-01-13T04:52:10.318Z,44.61
2019-01-13T04:53:10.261Z,44.58
2019-01-13T04:54:10.235Z,44.54
2019-01-13T04:55:10.593Z,44.59
2019-01-13T04:56:10.781Z,44.57
2019-01-13T04:57:10.232Z,44.53
2019-01-13T04:58:10.427Z,44.52
2019-01-13T04:59:10.269Z,44.51
2019-01-13T05:00:10.398Z,44.53
2019-01-13T05:01:10.247Z,44.5
2019-01-13T05:02:10.223Z,44.5
2019-01-13T05:03:10.376Z,44.45
2019-01-13T05:04:10.265Z,44.4
2019-01-13T05:05:10.050Z,44.38
2019-01-13T05:06:10.599Z,44.31
2019-01-13T05:07:10.276Z,44.29
2019-01-13T05:08:10.341Z,44.28
2019-01-13T05:09:10.102Z,44.25
2019-01-13T05:10:10.477Z,44.24
2019-01-13T05:11:10.360Z,44.17
2019-01-13T05:12:10.095Z,44.13
2019-01-13T05:13:10.338Z,44.13
2019-01-13T05:14:10.601Z,44.04
2019-01-13T05:15:10.607Z,44.06
2019-01-13T05:16:10.406Z,43.99
2019-01-13T05:17:10.382Z,43.99
2019-01-13T05:18:10.613Z,43.99
2019-01-13T05:19:10.324Z,43.98
2019-01-13T05:20:10.413Z,43.95
2019-01-13T05:21:10.826Z,43.95
2019-01-13T05:22:10.756Z,43.99
2019-01-13T05:23:10.211Z,43.95
2019-01-13T05:24:10.488Z,43.93
2019-01-13T05:25:10.256Z,43.97
2019-01-13T05:26:10.076Z,44.02
2019-01-13T05:27:10.203Z,43.98
2019-01-13T05:28:10.592Z,44.05
2019-01-13T05:29:10.306Z,43.96
2019-01-13T05:30:10.294Z,43.9
2019-01-13T05:31:10.386Z,43.99
2019-01-13T05:32:10.443Z,43.89
2019-01-13T05:33:10.217Z,43.92
2019-01-13T05:34:10.511Z,43.92
2019-01-13T05:35:10.233Z,43.92
2019-01-13T05:36:11.465Z,43.91
2019-01-13T05:37:10.425Z,43.98
2019-01-13T05:38:10.385Z,43.91
2019-01-13T05:39:11.005Z,43.93
2019-01-13T05:40:10.288Z,43.95
2019-01-13T05:41:10.612Z,43.97
2019-01-13T05:42:10.906Z,44
2019-01-13T05:43:10.184Z,44
2019-01-13T05:44:10.843Z,43.94
2019-01-13T05:45:10.574Z,43.92
2019-01-13T05:46:10.557Z,43.9
2019-01-13T05:47:10.502Z,43.92
2019-01-13T05:48:10.860Z,43.93
2019-01-13T05:49:10.133Z,43.93
2019-01-13T05:50:10.303Z,43.99
2019-01-13T05:51:10.532Z,43.99
2019-01-13T05:52:10.367Z,43.97
2019-01-13T05:53:10.629Z,43.96
2019-01-13T05:54:10.690Z,43.98
2019-01-13T05:55:10.595Z,43.95
2019-01-13T05:56:10.509Z,43.92
2019-01-13T05:57:10.485Z,43.95
2019-01-13T05:58:10.255Z,43.92
2019-01-13T05:59:10.499Z,43.94
2019-01-13T06:00:10.427Z,43.95
2019-01-13T06:01:10.244Z,43.94
2019-01-13T06:02:10.874Z,43.96
2019-01-13T06:03:10.291Z,43.99
2019-01-13T06:04:10.476Z,43.94
2019-01-13T06:05:10.434Z,43.96
2019-01-13T06:06:10.104Z,43.96
2019-01-13T06:07:10.946Z,43.97
2019-01-13T06:08:10.465Z,43.93
2019-01-13T06:09:10.090Z,43.97
2019-01-13T06:10:10.813Z,43.9
2019-01-13T06:11:10.145Z,43.94
2019-01-13T06:12:10.489Z,43.95
2019-01-13T06:13:10.893Z,43.92
2019-01-13T06:14:10.258Z,43.97
2019-01-13T06:15:10.248Z,43.95
2019-01-13T06:16:10.618Z,44.01
2019-01-13T06:17:10.189Z,43.96
2019-01-13T06:18:10.319Z,43.95
2019-01-13T06:19:11.164Z,43.95
2019-01-13T06:20:10.592Z,43.98
2019-01-13T06:21:11.187Z,43.93
2019-01-13T06:22:10.385Z,43.92
2019-01-13T06:23:10.256Z,43.96
2019-01-13T06:24:10.229Z,43.94
2019-01-13T06:25:10.305Z,43.94
2019-01-13T06:26:10.194Z,43.96
2019-01-13T06:27:10.240Z,43.93
2019-01-13T06:28:10.316Z,43.95
2019-01-13T06:29:10.929Z,43.96
2019-01-13T06:30:10.198Z,43.95
2019-01-13T06:31:10.453Z,43.89
2019-01-13T06:32:10.431Z,43.9
2019-01-13T06:33:10.140Z,43.91
2019-01-13T06:34:10.215Z,43.92
2019-01-13T06:35:10.282Z,43.88
2019-01-13T06:36:12.165Z,43.95
2019-01-13T06:37:10.419Z,43.94
2019-01-13T06:38:10.466Z,43.94
2019-01-13T06:39:10.065Z,43.92
2019-01-13T06:40:10.124Z,43.9
2019-01-13T06:41:10.619Z,43.91
2019-01-13T06:42:10.159Z,43.88
2019-01-13T06:43:10.336Z,43.89
2019-01-13T06:44:10.277Z,43.88
2019-01-13T06:45:10.170Z,43.81
2019-01-13T06:46:10.950Z,43.84
2019-01-13T06:47:10.336Z,43.98
2019-01-13T06:48:10.352Z,44.2
2019-01-13T06:49:10.265Z,44.22
2019-01-13T06:50:11.269Z,44.26
2019-01-13T06:51:10.119Z,44.14
2019-01-13T06:52:10.175Z,44.12
2019-01-13T06:53:10.277Z,44.05
2019-01-13T06:54:10.190Z,43.9
2019-01-13T06:55:10.439Z,43.67
2019-01-13T06:56:10.036Z,43.64
2019-01-13T06:57:10.128Z,43.65
2019-01-13T06:58:10.927Z,43.97
2019-01-13T06:59:10.256Z,44.01
2019-01-13T07:00:10.280Z,44.21
2019-01-13T07:01:10.445Z,44.23
2019-01-13T07:02:10.145Z,44.2
2019-01-13T07:03:10.899Z,43.93
2019-01-13T07:04:10.312Z,43.75
2019-01-13T07:05:10.431Z,43.52
2019-01-13T07:06:10.478Z,43.65
2019-01-13T07:07:10.595Z,43.87
2019-01-13T07:08:10.298Z,44.22
2019-01-13T07:09:10.460Z,44.24
2019-01-13T07:10:13.122Z,44.38
2019-01-13T07:11:10.537Z,44.34
2019-01-13T07:12:10.544Z,44.37
2019-01-13T07:13:10.221Z,44.35
2019-01-13T07:14:10.445Z,44.3
2019-01-13T07:15:10.290Z,44.2
2019-01-13T07:16:10.839Z,44.16
2019-01-13T07:17:10.459Z,44.15
2019-01-13T07:18:10.601Z,44.16
2019-01-13T07:19:11.168Z,44.12
2019-01-13T07:20:10.277Z,44.08
2019-01-13T07:21:10.404Z,44.08
2019-01-13T07:22:10.135Z,44.11
2019-01-13T07:23:10.247Z,44.05
2019-01-13T07:24:10.533Z,43.99
2019-01-13T07:25:10.134Z,44.08
2019-01-13T07:26:11.289Z,43.94
2019-01-13T07:27:12.217Z,44.03
2019-01-13T07:28:10.230Z,44.01
2019-01-13T07:29:11.209Z,43.96
2019-01-13T07:30:10.772Z,43.95
2019-01-13T07:31:10.346Z,43.99
2019-01-13T07:32:11.212Z,43.94
2019-01-13T07:33:10.342Z,44.03
2019-01-13T07:34:10.129Z,44.12
2019-01-13T07:35:10.396Z,44.1
2019-01-13T07:36:10.183Z,44.12
2019-01-13T07:37:10.798Z,43.98
2019-01-13T07:38:10.534Z,43.94
2019-01-13T07:39:10.407Z,43.96
2019-01-13T07:40:10.163Z,44.04
2019-01-13T07:41:10.765Z,44.04
2019-01-13T07:42:12.058Z,43.97
2019-01-13T07:43:10.288Z,44.1
2019-01-13T07:44:10.144Z,43.99
2019-01-13T07:45:10.137Z,44.08
2019-01-13T07:46:10.455Z,44.19
2019-01-13T07:47:10.189Z,44.05
2019-01-13T07:48:10.274Z,44.04
2019-01-13T07:49:10.372Z,44
2019-01-13T07:50:10.580Z,44.06
2019-01-13T07:51:10.523Z,44.24
2019-01-13T07:52:10.173Z,44.03
2019-01-13T07:53:10.232Z,44.01
2019-01-13T07:54:10.590Z,44.24
2019-01-13T07:55:10.183Z,43.93
2019-01-13T07:56:11.034Z,44.03
2019-01-13T07:57:10.286Z,43.88
2019-01-13T07:58:09.990Z,43.89
2019-01-13T07:59:10.186Z,43.88
2019-01-13T08:00:10.201Z,43.85
2019-01-13T08:01:10.192Z,43.8
2019-01-13T08:02:10.364Z,43.79
2019-01-13T08:03:10.205Z,43.78
2019-01-13T08:04:10.475Z,43.71
2019-01-13T08:05:10.482Z,43.68
2019-01-13T08:06:10.328Z,43.67
2019-01-13T08:07:10.014Z,43.69
2019-01-13T08:08:11.324Z,43.6
2019-01-13T08:09:10.511Z,43.62
2019-01-13T08:10:10.180Z,43.66
2019-01-13T08:11:10.063Z,43.62
2019-01-13T08:12:10.438Z,43.6
2019-01-13T08:13:10.066Z,43.67
2019-01-13T08:14:10.485Z,43.61
2019-01-13T08:15:11.393Z,43.68
2019-01-13T08:16:10.273Z,43.59
2019-01-13T08:17:10.524Z,43.7
2019-01-13T08:18:10.379Z,43.66
2019-01-13T08:19:10.475Z,43.76
2019-01-13T08:20:10.328Z,43.7
2019-01-13T08:21:10.529Z,43.57
2019-01-13T08:22:10.145Z,43.7
2019-01-13T08:23:10.396Z,43.72
2019-01-13T08:24:10.154Z,43.77
2019-01-13T08:25:10.330Z,43.75
2019-01-13T08:26:10.104Z,43.59
2019-01-13T08:27:10.157Z,43.75
2019-01-13T08:28:10.534Z,43.75
2019-01-13T08:29:10.169Z,43.68
2019-01-13T08:30:10.486Z,43.74
2019-01-13T08:31:10.083Z,43.7
2019-01-13T08:32:09.993Z,43.72
2019-01-13T08:33:10.198Z,43.74
2019-01-13T08:34:10.305Z,43.8
2019-01-13T08:35:10.219Z,43.76
2019-01-13T08:36:10.260Z,43.62
2019-01-13T08:37:10.351Z,43.69
2019-01-13T08:38:10.432Z,43.73
2019-01-13T08:39:10.224Z,43.74
2019-01-13T08:40:10.416Z,43.76
2019-01-13T08:41:10.119Z,43.78
2019-01-13T08:42:10.282Z,43.77
2019-01-13T08:43:10.361Z,43.73
2019-01-13T08:44:10.212Z,43.74
2019-01-13T08:45:10.556Z,43.71
2019-01-13T08:46:10.394Z,43.77
2019-01-13T08:47:10.491Z,43.78
2019-01-13T08:48:10.523Z,43.76
2019-01-13T08:49:10.514Z,43.76
2019-01-13T08:50:10.130Z,43.75
2019-01-13T08:51:10.404Z,43.77
2019-01-13T08:52:10.251Z,43.8
2019-01-13T08:53:10.301Z,43.73
2019-01-13T08:54:10.311Z,43.72
2019-01-13T08:55:11.243Z,43.73
2019-01-13T08:56:10.272Z,43.75
2019-01-13T08:57:10.357Z,43.74
2019-01-13T08:58:12.028Z,43.73
2019-01-13T08:59:10.224Z,43.71
2019-01-13T09:00:10.375Z,43.73
2019-01-13T09:01:10.393Z,43.69
2019-01-13T09:02:10.904Z,43.65
2019-01-13T09:03:10.517Z,43.69
2019-01-13T09:04:10.790Z,43.72
2019-01-13T09:05:10.640Z,43.69
2019-01-13T09:06:10.111Z,43.69
2019-01-13T09:07:10.736Z,43.7
2019-01-13T09:08:11.218Z,43.75
2019-01-13T09:09:10.237Z,43.68
2019-01-13T09:10:10.315Z,43.67
2019-01-13T09:11:10.347Z,43.66
2019-01-13T09:12:10.168Z,43.69
2019-01-13T09:13:11.267Z,43.68
2019-01-13T09:14:10.186Z,43.67
2019-01-13T09:15:10.220Z,43.7
2019-01-13T09:16:10.618Z,43.69
2019-01-13T09:17:10.099Z,43.65
2019-01-13T09:18:10.903Z,43.63
2019-01-13T09:19:10.134Z,43.67
2019-01-13T09:20:10.161Z,43.64
2019-01-13T09:21:12.174Z,43.65
2019-01-13T09:22:10.092Z,43.62
2019-01-13T09:23:10.342Z,43.65
2019-01-13T09:24:12.114Z,43.66
2019-01-13T09:25:10.421Z,43.6
2019-01-13T09:26:10.363Z,43.65
2019-01-13T09:27:10.489Z,43.63
2019-01-13T09:28:10.197Z,43.6
2019-01-13T09:29:11.301Z,43.65
2019-01-13T09:30:10.353Z,43.65
2019-01-13T09:31:10.180Z,43.62
2019-01-13T09:32:10.167Z,43.63
2019-01-13T09:33:10.624Z,43.63
2019-01-13T09:34:10.061Z,43.63
2019-01-13T09:35:10.148Z,43.65
2019-01-13T09:36:10.334Z,43.65
2019-01-13T09:37:10.061Z,43.95
2019-01-13T09:38:10.358Z,44.46
2019-01-13T09:39:10.224Z,44.34
2019-01-13T09:40:10.074Z,44.32
2019-01-13T09:41:10.269Z,44.57
2019-01-13T09:42:10.013Z,44.77
2019-01-13T09:43:12.022Z,44.86
2019-01-13T09:44:10.468Z,44.69
2019-01-13T09:45:11.098Z,44.81
2019-01-13T09:46:10.294Z,44.74
2019-01-13T09:47:10.336Z,44.68
2019-01-13T09:48:10.162Z,44.82
2019-01-13T09:49:11.459Z,45.04
2019-01-13T09:50:10.294Z,45.17
2019-01-13T09:51:10.260Z,44.85
2019-01-13T09:52:10.532Z,44.71
2019-01-13T09:53:10.497Z,44.83
2019-01-13T09:54:10.054Z,44.56
2019-01-13T09:55:10.141Z,44.25
2019-01-13T09:56:10.450Z,44.05
2019-01-13T09:57:10.457Z,44.04
2019-01-13T09:58:10.136Z,44.76
2019-01-13T09:59:10.348Z,44.55
2019-01-13T10:00:10.023Z,44.72
2019-01-13T10:01:10.391Z,44.96
2019-01-13T10:02:10.331Z,45.05
2019-01-13T10:03:10.442Z,45.05
2019-01-13T10:04:10.130Z,45.11
2019-01-13T10:05:10.577Z,44.86
2019-01-13T10:06:10.126Z,45.66
2019-01-13T10:07:10.274Z,45.02
2019-01-13T10:08:10.620Z,45.31
2019-01-13T10:09:10.083Z,45.34
2019-01-13T10:10:10.210Z,44.96
2019-01-13T10:11:10.215Z,44.91
2019-01-13T10:12:10.162Z,44.82
2019-01-13T10:13:10.274Z,45.16
2019-01-13T10:14:09.954Z,45.16
2019-01-13T10:15:10.184Z,44.78
2019-01-13T10:16:10.386Z,44.97
2019-01-13T10:17:10.461Z,44.68
2019-01-13T10:18:10.085Z,44.6
2019-01-13T10:19:10.124Z,45.21
2019-01-13T10:20:10.075Z,44.72
2019-01-13T10:21:10.147Z,45.1
2019-01-13T10:22:10.197Z,45.01
2019-01-13T10:23:10.051Z,45.41
2019-01-13T10:24:10.273Z,44.96
2019-01-13T10:25:10.112Z,44.52
2019-01-13T10:26:10.262Z,45.03
2019-01-13T10:27:10.130Z,44.95
2019-01-13T10:28:09.960Z,45.28
2019-01-13T10:29:10.190Z,45.4
2019-01-13T10:30:10.268Z,45.23
2019-01-13T10:31:10.319Z,45.07
2019-01-13T10:32:10.098Z,44.68
2019-01-13T10:33:10.264Z,45.07
2019-01-13T10:34:10.631Z,45.09
2019-01-13T10:35:09.986Z,44.73
2019-01-13T10:36:10.315Z,45.1
2019-01-13T10:37:09.975Z,44.91
2019-01-13T10:38:10.612Z,44.73
2019-01-13T10:39:10.463Z,44.71
2019-01-13T10:40:10.262Z,44.68
2019-01-13T10:41:10.124Z,44.91
2019-01-13T10:42:10.449Z,44.46
2019-01-13T10:43:10.782Z,44.92
2019-01-13T10:44:11.013Z,44.91
2019-01-13T10:45:10.594Z,44.7
2019-01-13T10:46:10.250Z,44.92
2019-01-13T10:47:10.203Z,45.16
2019-01-13T10:48:10.503Z,45.04
2019-01-13T10:49:11.327Z,44.64
2019-01-13T10:50:10.137Z,44.79
2019-01-13T10:51:10.370Z,44.6
2019-01-13T10:52:09.940Z,44.74
2019-01-13T10:52:59.029Z,45.2
2019-01-13T10:54:17.253Z,44.26
2019-01-13T10:55:16.987Z,44.2
2019-01-13T10:56:17.082Z,44.25
2019-01-13T10:57:17.252Z,44.61
2019-01-13T10:58:17.416Z,44.15
2019-01-13T10:59:17.366Z,44.14
2019-01-13T10:59:59.162Z,44.09
2019-01-13T11:00:59.680Z,44.11
2019-01-13T11:01:59.853Z,43.95
2019-01-13T11:03:03.697Z,43.85
2019-01-13T11:03:59.428Z,43.93
2019-01-13T11:05:00.719Z,44.03
2019-01-13T11:06:03.130Z,44.08
2019-01-13T11:07:00.617Z,44.07
2019-01-13T11:08:01.019Z,44.21
2019-01-13T11:09:00.878Z,44.14
2019-01-13T11:10:00.191Z,44.09
2019-01-13T11:11:02.400Z,44.08
2019-01-13T11:11:59.681Z,43.95
2019-01-13T11:12:59.473Z,44.09
2019-01-13T11:14:02.086Z,44.04
2019-01-13T11:14:39.527Z,46.05
2019-01-13T11:15:38.950Z,44.85
2019-01-13T11:16:41.876Z,45.24
2019-01-13T11:17:38.905Z,44.05
2019-01-13T11:18:38.992Z,44.1
2019-01-13T11:19:38.809Z,44.03
2019-01-13T11:20:39.127Z,43.91
2019-01-13T11:21:39.179Z,44.05
2019-01-13T11:22:38.899Z,43.99
2019-01-13T11:23:40.141Z,44.1
2019-01-13T11:24:38.894Z,43.91
2019-01-13T11:25:38.646Z,44.22
2019-01-13T11:26:38.532Z,44.26
2019-01-13T11:27:38.649Z,44.12
2019-01-13T11:28:39.034Z,44.07
2019-01-13T11:29:38.653Z,44.04
2019-01-13T11:30:39.045Z,44.2
2019-01-13T11:31:38.485Z,44.39
2019-01-13T11:32:39.013Z,44.41
2019-01-13T11:33:38.784Z,44.2
2019-01-13T11:34:38.462Z,44.11
2019-01-13T11:35:39.000Z,44.17
2019-01-13T11:36:38.809Z,44.37
2019-01-13T11:37:38.781Z,44.27
2019-01-13T11:38:38.808Z,44.27
2019-01-13T11:39:41.299Z,44.33
2019-01-13T11:40:39.721Z,44.1
2019-01-13T11:41:38.736Z,44.39
2019-01-13T11:42:38.719Z,44.19
2019-01-13T11:43:38.391Z,44.15
2019-01-13T11:44:38.868Z,44.03
2019-01-13T11:45:39.361Z,43.98
2019-01-13T11:46:38.515Z,44.33
2019-01-13T11:47:39.124Z,44.33
2019-01-13T11:48:39.208Z,44.42
2019-01-13T11:49:39.408Z,43.98
2019-01-13T11:50:39.169Z,43.97
2019-01-13T11:51:38.813Z,43.85
2019-01-13T11:52:38.870Z,43.92
2019-01-13T11:53:38.900Z,43.89
2019-01-13T11:54:40.648Z,43.82
2019-01-13T11:55:38.866Z,43.81
2019-01-13T11:56:38.565Z,43.8
2019-01-13T11:57:38.898Z,44.32
2019-01-13T11:58:39.007Z,44.26
2019-01-13T11:59:38.936Z,43.94
2019-01-13T12:00:38.962Z,43.82
2019-01-13T12:01:38.926Z,43.82
2019-01-13T12:02:38.587Z,43.86
2019-01-13T12:03:38.901Z,43.89
2019-01-13T12:04:39.042Z,43.83
2019-01-13T12:05:38.598Z,43.95
2019-01-13T12:06:39.119Z,43.8
2019-01-13T12:07:39.158Z,43.85
2019-01-13T12:08:39.904Z,43.82
2019-01-13T12:09:38.480Z,43.87
2019-01-13T12:10:38.617Z,44.16
2019-01-13T12:11:38.378Z,43.95
2019-01-13T12:12:38.454Z,43.88
2019-01-13T12:13:38.851Z,43.93
2019-01-13T12:14:38.903Z,44.67
2019-01-13T12:15:38.830Z,44.35
2019-01-13T12:16:39.131Z,44.57
2019-01-13T12:17:38.514Z,44.33
2019-01-13T12:18:41.652Z,44.28
2019-01-13T12:19:40.490Z,44.5
2019-01-13T12:20:39.275Z,43.97
2019-01-13T12:21:38.451Z,44.32
2019-01-13T12:22:38.548Z,44.33
2019-01-13T12:23:38.815Z,44.48
2019-01-13T12:24:38.793Z,44.2
2019-01-13T12:25:38.537Z,44.27
2019-01-13T12:26:38.923Z,44.45
2019-01-13T12:27:38.634Z,44.31
2019-01-13T12:28:38.476Z,44.1
2019-01-13T12:29:38.654Z,44.11
2019-01-13T12:30:38.659Z,44.3
2019-01-13T12:31:38.580Z,44.22
2019-01-13T12:32:38.633Z,44.11
2019-01-13T12:33:38.581Z,44.11
2019-01-13T12:34:38.697Z,44.18
2019-01-13T12:35:38.937Z,44.16
2019-01-13T12:36:38.639Z,44.03
2019-01-13T12:37:39.095Z,44.27
2019-01-13T12:38:39.812Z,43.94
2019-01-13T12:39:38.624Z,44.1
2019-01-13T12:40:39.198Z,44.2
2019-01-13T12:41:38.732Z,43.94
2019-01-13T12:42:38.470Z,44.08
2019-01-13T12:43:39.471Z,44.17
2019-01-13T12:44:38.828Z,44.2
2019-01-13T12:45:38.826Z,43.87
2019-01-13T12:46:39.169Z,43.94
2019-01-13T12:47:38.783Z,43.87
2019-01-13T12:48:38.539Z,43.76
2019-01-13T12:49:38.521Z,43.78
2019-01-13T12:50:39.368Z,43.74
2019-01-13T12:51:38.946Z,43.73
2019-01-13T12:52:38.840Z,43.71
2019-01-13T12:53:38.674Z,43.69
2019-01-13T12:54:38.655Z,43.66